createdAt,value
2022-10-19T00:01:17.252Z,10.98
2022-10-19T00:06:26.185Z,7.05
2022-10-19T00:08:55.770Z,8.15
2022-10-19T00:11:24.826Z,9.43
2022-10-19T00:13:53.649Z,6.82
2022-10-19T00:16:22.862Z,8.43
2022-10-19T00:18:51.134Z,7.35
2022-10-19T00:21:21.343Z,5.67
2022-10-19T00:23:50.128Z,9.07
2022-10-19T00:26:18.391Z,9.90
2022-10-19T00:28:46.923Z,8.90
2022-10-19T00:31:17.008Z,5.67
2022-10-19T00:33:47.094Z,9.77
2022-10-19T00:36:17.912Z,11.85
2022-10-19T00:38:47.657Z,11.43
2022-10-19T00:41:17.513Z,14.23
2022-10-19T00:43:53.752Z,10.82
2022-10-19T00:46:22.272Z,8.30
2022-10-19T00:48:51.650Z,6.88
2022-10-19T00:51:20.468Z,8.07
2022-10-19T00:53:50.254Z,9.35
2022-10-19T00:56:18.848Z,12.63
2022-10-19T00:58:47.329Z,10.85
2022-10-19T01:01:19.042Z,8.95
2022-10-19T01:03:47.901Z,11.65
2022-10-19T01:06:18.470Z,6.35
2022-10-19T01:08:46.897Z,11.77
2022-10-19T01:11:28.138Z,10.25
2022-10-19T01:14:06.811Z,13.40
2022-10-19T01:16:54.841Z,13.27
2022-10-19T01:19:46.277Z,11.20
2022-10-19T01:22:26.043Z,10.77
2022-10-19T01:25:06.705Z,10.85
2022-10-19T01:28:04.362Z,7.68
2022-10-19T01:30:49.075Z,12.43
2022-10-19T01:33:28.797Z,15.00
2022-10-19T01:36:08.023Z,8.63
2022-10-19T01:38:39.433Z,9.00
2022-10-19T01:41:16.117Z,7.05
2022-10-19T01:43:51.137Z,10.37
2022-10-19T01:46:27.638Z,6.23
2022-10-19T01:48:59.964Z,9.60
2022-10-19T01:51:31.751Z,12.70
2022-10-19T01:54:05.101Z,11.95
2022-10-19T01:56:35.435Z,13.38
2022-10-19T01:59:07.620Z,11.45
2022-10-19T02:01:40.983Z,10.70
2022-10-19T02:04:11.081Z,9.20
2022-10-19T02:06:39.779Z,11.63
2022-10-19T02:09:08.357Z,10.57
2022-10-19T02:11:38.470Z,7.85
2022-10-19T02:14:10.682Z,11.18
2022-10-19T02:16:46.128Z,8.63
2022-10-19T02:19:17.042Z,12.02
2022-10-19T02:21:45.633Z,11.50
2022-10-19T02:24:13.877Z,10.32
2022-10-19T02:26:42.838Z,8.32
2022-10-19T02:29:13.364Z,5.78
2022-10-19T02:31:43.385Z,10.15
2022-10-19T02:34:12.275Z,13.15
2022-10-19T02:36:40.537Z,12.85
2022-10-19T02:39:09.510Z,7.80
2022-10-19T02:41:42.064Z,12.38
2022-10-19T02:44:16.334Z,14.07
2022-10-19T02:46:47.493Z,13.02
2022-10-19T02:49:16.827Z,12.20
2022-10-19T02:51:58.661Z,11.70
2022-10-19T02:54:27.305Z,9.98
2022-10-19T02:56:56.049Z,10.02
2022-10-19T02:59:25.051Z,9.32
2022-10-19T03:01:54.965Z,10.73
2022-10-19T03:04:23.345Z,9.50
2022-10-19T03:06:51.728Z,9.27
2022-10-19T03:09:20.247Z,10.32
2022-10-19T03:11:48.737Z,9.18
2022-10-19T03:14:17.070Z,12.02
2022-10-19T03:16:45.504Z,9.23
2022-10-19T03:19:15.297Z,10.57
2022-10-19T03:21:43.573Z,9.13
2022-10-19T03:24:11.957Z,11.95
2022-10-19T03:26:40.243Z,14.02
2022-10-19T03:29:08.519Z,15.63
2022-10-19T03:31:36.860Z,11.40
2022-10-19T03:34:05.527Z,12.18
2022-10-19T03:36:36.691Z,9.57
2022-10-19T03:39:07.657Z,14.82
2022-10-19T03:41:37.701Z,13.18
2022-10-19T03:44:06.278Z,11.65
2022-10-19T03:46:35.582Z,14.20
2022-10-19T03:49:04.569Z,15.13
2022-10-19T03:51:35.166Z,13.52
2022-10-19T03:54:05.681Z,13.60
2022-10-19T03:56:35.905Z,10.80
2022-10-19T03:59:05.863Z,13.32
2022-10-19T04:01:35.842Z,13.43
2022-10-19T04:04:06.109Z,14.10
2022-10-19T04:06:37.874Z,12.73
2022-10-19T04:09:08.103Z,10.25
2022-10-19T04:11:37.030Z,11.35
2022-10-19T04:14:05.479Z,15.27
2022-10-19T04:16:33.861Z,12.30
2022-10-19T04:19:02.606Z,13.45
2022-10-19T04:21:32.511Z,13.10
2022-10-19T04:24:05.672Z,11.23
2022-10-19T04:26:35.110Z,14.25
2022-10-19T04:29:03.597Z,13.60
2022-10-19T04:31:32.011Z,11.32
2022-10-19T04:34:01.569Z,12.20
2022-10-19T04:36:30.253Z,15.63
2022-10-19T04:38:58.630Z,13.73
2022-10-19T04:41:28.549Z,11.27
2022-10-19T04:43:58.927Z,12.45
2022-10-19T04:46:29.097Z,10.83
2022-10-19T04:48:58.499Z,10.57
2022-10-19T04:51:27.615Z,15.73
2022-10-19T04:53:59.658Z,10.20
2022-10-19T04:56:30.915Z,14.02
2022-10-19T04:59:00.727Z,15.63
2022-10-19T05:01:31.393Z,14.27
2022-10-19T05:04:01.738Z,10.65
2022-10-19T05:06:31.181Z,11.88
2022-10-19T05:08:59.737Z,12.20
2022-10-19T05:11:29.663Z,10.13
2022-10-19T05:13:58.527Z,17.17
2022-10-19T05:16:26.898Z,13.48
2022-10-19T05:18:58.921Z,12.52
2022-10-19T05:21:28.996Z,10.25
2022-10-19T05:23:58.603Z,15.30
2022-10-19T05:26:30.387Z,12.43
2022-10-19T05:29:01.962Z,19.65
2022-10-19T05:31:32.003Z,10.13
2022-10-19T05:34:01.365Z,16.97
2022-10-19T05:36:34.607Z,13.85
2022-10-19T05:39:05.585Z,11.63
2022-10-19T05:41:35.614Z,16.50
2022-10-19T05:44:04.919Z,14.02
2022-10-19T05:46:35.135Z,13.73
2022-10-19T05:49:03.759Z,13.65
2022-10-19T05:51:32.292Z,19.45
2022-10-19T05:54:00.725Z,15.27
2022-10-19T05:56:31.120Z,15.10
2022-10-19T05:59:02.798Z,15.43
2022-10-19T06:01:31.607Z,16.30
2022-10-19T06:04:01.138Z,14.43
2022-10-19T06:06:29.633Z,15.02
2022-10-19T06:08:59.119Z,15.75
2022-10-19T06:11:29.309Z,16.83
2022-10-19T06:14:01.034Z,18.23
2022-10-19T06:16:30.926Z,14.83
2022-10-19T06:18:59.824Z,14.47
2022-10-19T06:21:30.043Z,15.95
2022-10-19T06:23:59.703Z,13.95
2022-10-19T06:26:28.673Z,17.55
2022-10-19T06:29:00.599Z,16.30
2022-10-19T06:31:31.881Z,18.52
2022-10-19T06:34:00.566Z,14.02
2022-10-19T06:36:31.030Z,12.43
2022-10-19T06:39:01.995Z,14.68
2022-10-19T06:41:31.270Z,14.98
2022-10-19T06:43:59.749Z,12.23
2022-10-19T06:46:28.483Z,16.80
2022-10-19T06:48:59.806Z,15.63
2022-10-19T06:51:29.861Z,15.57
2022-10-19T06:53:58.193Z,19.20
2022-10-19T06:56:27.267Z,10.67
2022-10-19T06:58:56.097Z,13.17
2022-10-19T07:01:24.449Z,12.32
2022-10-19T07:03:53.867Z,16.33
2022-10-19T07:06:24.242Z,10.30
2022-10-19T07:08:54.302Z,15.18
2022-10-19T07:11:23.549Z,14.32
2022-10-19T07:13:53.932Z,13.25
2022-10-19T07:16:22.917Z,7.37
2022-10-19T07:18:52.783Z,11.30
2022-10-19T07:21:24.198Z,15.43
2022-10-19T07:23:52.493Z,9.77
2022-10-19T07:26:23.928Z,11.35
2022-10-19T07:28:52.623Z,11.60
2022-10-19T07:31:23.220Z,17.50
2022-10-19T07:33:53.961Z,13.70
2022-10-19T07:36:24.252Z,13.90
2022-10-19T07:38:52.612Z,19.52
2022-10-19T07:41:22.873Z,13.75
2022-10-19T07:43:51.952Z,14.45
2022-10-19T07:46:22.252Z,12.77
2022-10-19T07:48:51.022Z,13.57
2022-10-19T07:51:21.193Z,12.63
2022-10-19T07:53:51.047Z,14.05
2022-10-19T07:56:21.413Z,11.70
2022-10-19T07:58:51.285Z,14.10
2022-10-19T08:01:21.609Z,11.38
2022-10-19T08:06:41.013Z,11.50
2022-10-19T08:09:15.665Z,12.60
2022-10-19T08:11:51.270Z,12.85
2022-10-19T08:14:19.847Z,11.68
2022-10-19T08:16:48.134Z,12.68
2022-10-19T08:19:17.540Z,13.80
2022-10-19T08:21:47.503Z,12.55
2022-10-19T08:24:18.612Z,13.88
2022-10-19T08:26:47.026Z,14.20
2022-10-19T08:29:17.569Z,9.85
2022-10-19T08:31:47.111Z,14.82
2022-10-19T08:34:16.178Z,14.60
2022-10-19T08:36:44.853Z,12.50
2022-10-19T08:39:13.951Z,11.80
2022-10-19T08:41:56.720Z,12.35
2022-10-19T08:44:54.074Z,10.63
2022-10-19T08:47:37.022Z,15.30
2022-10-19T08:50:18.213Z,13.35
2022-10-19T08:52:50.955Z,11.68
2022-10-19T08:55:27.002Z,11.43
2022-10-19T08:58:07.133Z,13.68
2022-10-19T09:00:43.693Z,12.32
2022-10-19T09:03:31.981Z,11.05
2022-10-19T09:06:20.361Z,8.57
2022-10-19T09:08:49.855Z,14.13
2022-10-19T09:11:23.748Z,7.05
2022-10-19T09:14:05.189Z,11.48
2022-10-19T09:16:35.310Z,17.95
2022-10-19T09:19:04.652Z,7.53
2022-10-19T09:21:47.367Z,9.73
2022-10-19T09:24:28.839Z,12.65
2022-10-19T09:26:59.349Z,13.55
2022-10-19T09:29:36.341Z,12.88
2022-10-19T09:32:07.219Z,11.73
2022-10-19T09:34:39.541Z,11.68
2022-10-19T09:37:07.881Z,8.05
2022-10-19T09:39:36.560Z,10.00
2022-10-19T09:42:14.439Z,7.20
2022-10-19T09:44:44.485Z,6.43
2022-10-19T09:47:28.057Z,9.98
2022-10-19T09:50:09.535Z,7.68
2022-10-19T09:52:39.630Z,7.60
2022-10-19T09:55:19.006Z,14.77
2022-10-19T09:57:49.891Z,12.18
2022-10-19T10:00:25.173Z,8.77
2022-10-19T10:02:55.237Z,14.15
2022-10-19T10:05:33.214Z,11.17
2022-10-19T10:08:01.897Z,11.45
2022-10-19T10:10:34.843Z,12.93
2022-10-19T10:13:03.611Z,11.85
2022-10-19T10:15:44.810Z,14.77
2022-10-19T10:18:16.552Z,12.75
2022-10-19T10:21:06.953Z,15.52
2022-10-19T10:23:37.853Z,9.95
2022-10-19T10:26:17.041Z,12.45
2022-10-19T10:28:50.015Z,11.38
2022-10-19T10:31:23.615Z,14.38
2022-10-19T10:34:06.572Z,14.03
2022-10-19T10:36:45.679Z,12.73
2022-10-19T10:39:18.600Z,15.18
2022-10-19T10:41:48.962Z,15.95
2022-10-19T10:44:22.800Z,16.38
2022-10-19T10:46:58.485Z,13.40
2022-10-19T10:49:30.083Z,16.60
2022-10-19T10:52:01.576Z,13.57
2022-10-19T10:54:31.437Z,20.17
2022-10-19T10:57:13.314Z,15.20
2022-10-19T10:59:48.862Z,14.27
2022-10-19T11:02:36.804Z,19.27
2022-10-19T11:05:11.985Z,16.63
2022-10-19T11:07:45.175Z,17.20
2022-10-19T11:10:26.775Z,18.75
2022-10-19T11:13:03.561Z,16.70
2022-10-19T11:15:38.475Z,19.23
2022-10-19T11:18:21.294Z,18.33
2022-10-19T11:20:58.738Z,25.73
2022-10-19T11:23:39.168Z,18.13
2022-10-19T11:26:19.975Z,16.95
2022-10-19T11:29:08.564Z,18.45
2022-10-19T11:31:44.693Z,15.20
2022-10-19T11:34:28.810Z,23.20
2022-10-19T11:37:04.572Z,13.40
2022-10-19T11:39:44.539Z,15.68
2022-10-19T11:42:19.802Z,19.52
2022-10-19T11:44:59.096Z,22.92
2022-10-19T11:47:51.133Z,23.92
2022-10-19T11:50:32.450Z,19.75
2022-10-19T11:53:10.724Z,20.67
2022-10-19T11:55:47.287Z,21.73
2022-10-19T11:58:50.607Z,19.52
2022-10-19T12:01:29.313Z,18.53
2022-10-19T12:04:39.067Z,25.42
2022-10-19T12:07:32.153Z,18.90
2022-10-19T12:10:09.947Z,23.70
2022-10-19T12:12:42.502Z,26.63
2022-10-19T12:15:28.559Z,24.33
2022-10-19T12:18:02.300Z,32.30
2022-10-19T12:20:36.085Z,14.88
2022-10-19T12:23:22.593Z,18.70
2022-10-19T12:25:52.038Z,23.52
2022-10-19T12:28:25.082Z,31.10
2022-10-19T12:30:55.106Z,27.38
2022-10-19T12:33:29.084Z,29.30
2022-10-19T12:36:05.498Z,29.30
2022-10-19T12:38:49.468Z,32.53
2022-10-19T12:41:26.939Z,28.45
2022-10-19T12:44:10.273Z,28.35
2022-10-19T12:46:42.669Z,29.70
2022-10-19T12:49:36.560Z,33.75
2022-10-19T12:52:07.908Z,24.60
2022-10-19T12:54:40.888Z,22.08
2022-10-19T12:57:25.438Z,13.80
2022-10-19T13:00:02.678Z,20.13
2022-10-19T13:02:35.174Z,16.83
2022-10-19T13:05:04.021Z,17.85
2022-10-19T13:07:36.630Z,20.73
2022-10-19T13:10:19.611Z,20.92
2022-10-19T13:12:48.720Z,22.73
2022-10-19T13:15:56.485Z,17.65
2022-10-19T13:19:07.469Z,17.08
2022-10-19T13:21:46.700Z,20.13
2022-10-19T13:24:30.306Z,16.15
2022-10-19T13:27:39.393Z,18.60
2022-10-19T13:30:46.845Z,16.95
2022-10-19T13:33:45.780Z,15.60
2022-10-19T13:36:14.633Z,13.67
2022-10-19T13:38:44.658Z,14.50
2022-10-19T13:41:17.158Z,16.98
2022-10-19T13:44:01.029Z,14.40
2022-10-19T13:46:52.215Z,16.15
2022-10-19T13:50:07.867Z,18.10
2022-10-19T13:53:05.316Z,15.05
2022-10-19T13:56:01.400Z,18.48
2022-10-19T13:59:21.426Z,16.48
2022-10-19T14:02:02.856Z,14.10
2022-10-19T14:04:46.264Z,17.60
2022-10-19T14:07:17.284Z,15.45
2022-10-19T14:10:07.605Z,13.40
2022-10-19T14:12:41.999Z,11.87
2022-10-19T14:15:27.847Z,18.08
2022-10-19T14:18:01.270Z,20.30
2022-10-19T14:20:34.246Z,14.48
2022-10-19T14:23:19.196Z,20.70
2022-10-19T14:25:53.178Z,19.17
2022-10-19T14:28:23.691Z,19.37
2022-10-19T14:31:00.593Z,14.23
2022-10-19T14:33:33.816Z,13.00
2022-10-19T14:36:02.813Z,18.83
2022-10-19T14:38:35.456Z,18.70
2022-10-19T14:41:04.337Z,13.57
2022-10-19T14:43:34.373Z,12.52
2022-10-19T14:46:12.362Z,16.02
2022-10-19T14:48:45.487Z,18.65
2022-10-19T14:51:25.837Z,16.30
2022-10-19T14:53:57.718Z,15.55
2022-10-19T14:56:36.276Z,16.57
2022-10-19T14:59:07.326Z,18.17
2022-10-19T15:01:37.615Z,22.23
2022-10-19T15:04:07.465Z,21.35
2022-10-19T15:06:42.360Z,12.10
2022-10-19T15:09:36.720Z,17.58
2022-10-19T15:12:10.167Z,24.67
2022-10-19T15:14:39.423Z,19.23
2022-10-19T15:17:23.690Z,14.98
2022-10-19T15:19:56.133Z,14.45
2022-10-19T15:22:41.260Z,15.43
2022-10-19T15:25:28.338Z,19.92
2022-10-19T15:27:57.767Z,18.10
2022-10-19T15:30:34.040Z,15.52
2022-10-19T15:33:15.269Z,17.38
2022-10-19T15:35:46.252Z,25.10
2022-10-19T15:38:20.728Z,20.50
2022-10-19T15:40:49.568Z,17.85
2022-10-19T15:43:49.633Z,18.90
2022-10-19T15:47:01.275Z,15.05
2022-10-19T15:49:52.819Z,12.32
2022-10-19T15:52:24.758Z,20.83
2022-10-19T15:54:54.425Z,13.00
2022-10-19T15:57:32.902Z,16.48
2022-10-19T16:00:08.376Z,14.40
2022-10-19T16:02:36.779Z,13.63
2022-10-19T16:07:39.568Z,12.73
2022-10-19T16:10:09.404Z,16.13
2022-10-19T16:12:37.675Z,16.77
2022-10-19T16:15:06.819Z,11.43
2022-10-19T16:17:35.370Z,20.15
2022-10-19T16:20:03.895Z,15.23
2022-10-19T16:22:32.478Z,16.17
2022-10-19T16:25:02.281Z,15.65
2022-10-19T16:27:31.925Z,17.83
2022-10-19T16:30:00.305Z,16.42
2022-10-19T16:32:28.961Z,22.83
2022-10-19T16:34:57.701Z,20.60
2022-10-19T16:37:26.434Z,23.25
2022-10-19T16:39:54.674Z,12.68
2022-10-19T16:42:29.638Z,15.80
2022-10-19T16:44:58.938Z,16.85
2022-10-19T16:47:27.330Z,16.90
2022-10-19T16:50:00.113Z,9.23
2022-10-19T16:52:28.725Z,16.80
2022-10-19T16:54:57.918Z,21.40
2022-10-19T16:57:27.576Z,15.83
2022-10-19T16:59:55.897Z,14.52
2022-10-19T17:02:24.816Z,16.77
2022-10-19T17:04:53.206Z,13.70
2022-10-19T17:07:21.459Z,13.50
2022-10-19T17:09:53.715Z,10.02
2022-10-19T17:12:23.211Z,11.93
2022-10-19T17:14:52.870Z,12.60
2022-10-19T17:17:21.460Z,12.35
2022-10-19T17:19:49.989Z,15.93
2022-10-19T17:22:18.404Z,17.20
2022-10-19T17:24:47.500Z,12.70
2022-10-19T17:27:15.792Z,16.65
2022-10-19T17:29:44.183Z,17.80
2022-10-19T17:32:13.919Z,15.40
2022-10-19T17:34:42.526Z,14.63
2022-10-19T17:37:10.829Z,17.53
2022-10-19T17:39:39.246Z,14.85
2022-10-19T17:42:07.511Z,15.43
2022-10-19T17:44:36.030Z,10.70
2022-10-19T17:47:04.406Z,21.60
2022-10-19T17:49:34.115Z,14.33
2022-10-19T17:52:02.454Z,16.73
2022-10-19T17:54:36.282Z,15.77
2022-10-19T17:57:12.071Z,13.95
2022-10-19T17:59:52.012Z,19.23
2022-10-19T18:02:21.272Z,13.88
2022-10-19T18:04:50.925Z,13.43
2022-10-19T18:07:22.014Z,12.95
2022-10-19T18:09:50.422Z,14.93
2022-10-19T18:12:18.719Z,15.20
2022-10-19T18:14:47.163Z,11.55
2022-10-19T18:17:15.513Z,16.13
2022-10-19T18:19:43.904Z,16.35
2022-10-19T18:22:13.626Z,12.57
2022-10-19T18:24:41.940Z,15.68
2022-10-19T18:27:12.914Z,11.30
2022-10-19T18:29:41.266Z,17.02
2022-10-19T18:32:09.773Z,13.65
2022-10-19T18:34:38.334Z,12.60
2022-10-19T18:37:07.331Z,13.05
2022-10-19T18:39:37.071Z,14.63
2022-10-19T18:42:05.616Z,10.90
2022-10-19T18:44:33.984Z,14.43
2022-10-19T18:47:02.256Z,14.57
2022-10-19T18:49:30.755Z,17.65
2022-10-19T18:51:59.090Z,16.20
2022-10-19T18:54:28.347Z,14.18
2022-10-19T18:56:58.155Z,15.05
2022-10-19T19:01:59.766Z,15.23
2022-10-19T19:04:28.366Z,16.90
2022-10-19T19:06:56.821Z,20.30
2022-10-19T19:09:25.333Z,18.30
2022-10-19T19:11:54.414Z,20.40
2022-10-19T19:14:24.495Z,13.07
2022-10-19T19:16:53.061Z,17.27
2022-10-19T19:19:21.463Z,16.67
2022-10-19T19:21:50.543Z,15.25
2022-10-19T19:24:20.593Z,15.27
2022-10-19T19:26:50.857Z,16.80
2022-10-19T19:29:20.607Z,16.10
2022-10-19T19:31:51.853Z,23.83
2022-10-19T19:34:20.178Z,18.85
2022-10-19T19:36:49.083Z,11.75
2022-10-19T19:39:20.227Z,16.02
2022-10-19T19:41:49.356Z,15.50
2022-10-19T19:44:18.307Z,18.67
2022-10-19T19:46:46.686Z,18.17
2022-10-19T19:49:17.455Z,20.20
2022-10-19T19:51:46.252Z,19.47
2022-10-19T19:54:14.806Z,15.20
2022-10-19T19:56:43.915Z,12.07
2022-10-19T19:59:13.823Z,17.70
2022-10-19T20:01:42.710Z,20.52
2022-10-19T20:04:11.543Z,17.23
2022-10-19T20:06:44.648Z,20.23
2022-10-19T20:09:14.111Z,19.90
2022-10-19T20:11:43.046Z,16.85
2022-10-19T20:14:12.451Z,16.42
2022-10-19T20:16:41.223Z,14.88
2022-10-19T20:19:12.014Z,18.90
2022-10-19T20:21:45.181Z,20.00
2022-10-19T20:24:14.281Z,19.87
2022-10-19T20:26:43.601Z,19.63
2022-10-19T20:29:12.080Z,20.77
2022-10-19T20:31:41.564Z,19.83
2022-10-19T20:34:11.265Z,15.18
2022-10-19T20:36:40.052Z,19.60
2022-10-19T20:39:10.292Z,22.55
2022-10-19T20:41:38.855Z,17.63
2022-10-19T20:44:07.555Z,20.00
2022-10-19T20:46:37.270Z,17.38
2022-10-19T20:49:05.647Z,15.52
2022-10-19T20:51:36.885Z,15.48
2022-10-19T20:54:07.777Z,19.88
2022-10-19T20:56:39.356Z,16.85
2022-10-19T20:59:09.230Z,18.23
2022-10-19T21:01:39.446Z,21.55
2022-10-19T21:04:12.012Z,19.25
2022-10-19T21:06:42.538Z,17.50
2022-10-19T21:09:11.880Z,17.58
2022-10-19T21:11:42.714Z,18.48
2022-10-19T21:14:14.837Z,25.00
2022-10-19T21:16:43.817Z,20.20
2022-10-19T21:19:15.237Z,19.75
2022-10-19T21:21:45.407Z,23.80
2022-10-19T21:24:15.442Z,27.25
2022-10-19T21:26:45.547Z,21.30
2022-10-19T21:29:15.120Z,26.20
2022-10-19T21:31:47.942Z,25.02
2022-10-19T21:34:19.825Z,23.00
2022-10-19T21:36:48.302Z,24.70
2022-10-19T21:39:17.622Z,21.85
2022-10-19T21:41:48.398Z,29.17
2022-10-19T21:44:18.120Z,22.83
2022-10-19T21:46:48.526Z,18.67
2022-10-19T21:49:17.504Z,24.87
2022-10-19T21:51:48.959Z,22.83
2022-10-19T21:54:20.030Z,23.48
2022-10-19T21:56:49.960Z,23.40
2022-10-19T21:59:18.508Z,24.27
2022-10-19T22:01:46.825Z,19.02
2022-10-19T22:04:16.426Z,20.77
2022-10-19T22:06:45.003Z,21.23
2022-10-19T22:09:15.804Z,20.50
2022-10-19T22:11:44.323Z,22.08
2022-10-19T22:14:15.129Z,19.95
2022-10-19T22:16:44.112Z,20.33
2022-10-19T22:19:15.043Z,17.63
2022-10-19T22:21:43.310Z,19.63
2022-10-19T22:24:14.529Z,23.58
2022-10-19T22:26:44.556Z,24.67
2022-10-19T22:29:14.810Z,19.35
2022-10-19T22:31:43.708Z,17.80
2022-10-19T22:34:14.178Z,22.40
2022-10-19T22:36:42.707Z,25.48
2022-10-19T22:39:11.369Z,18.48
2022-10-19T22:42:18.015Z,14.57
2022-10-19T22:44:47.768Z,14.63
2022-10-19T22:47:16.065Z,22.92
2022-10-19T22:49:44.308Z,19.95
2022-10-19T22:52:12.698Z,17.63
2022-10-19T22:54:40.991Z,18.58
2022-10-19T22:57:09.565Z,16.88
2022-10-19T22:59:37.967Z,15.02
2022-10-19T23:02:07.838Z,17.92
2022-10-19T23:04:36.155Z,22.83
2022-10-19T23:07:04.532Z,20.02
2022-10-19T23:09:32.826Z,13.45
2022-10-19T23:12:01.044Z,14.30
2022-10-19T23:14:29.329Z,14.70
2022-10-19T23:16:57.592Z,14.93
2022-10-19T23:19:27.426Z,18.33
2022-10-19T23:21:55.783Z,21.17
2022-10-19T23:24:24.269Z,18.08
2022-10-19T23:26:53.651Z,15.73
2022-10-19T23:29:22.289Z,19.15
2022-10-19T23:31:50.550Z,16.20
2022-10-19T23:34:18.944Z,15.82
2022-10-19T23:36:48.814Z,18.38
2022-10-19T23:39:17.322Z,19.85
2022-10-19T23:41:45.527Z,13.20
2022-10-19T23:44:13.917Z,14.98
2022-10-19T23:46:42.146Z,14.30
2022-10-19T23:49:10.374Z,18.45
2022-10-19T23:51:38.607Z,22.70
2022-10-19T23:54:08.294Z,13.02
2022-10-19T23:56:36.612Z,19.30
2022-10-19T23:59:07.336Z,16.50
